Time;durP1;ratioP1;P1;durP2;ratioP2;P2;SDS_P1;SDS_P2;PMS_P1;PMS_P2;Temp;Humidity;BMP_temperature;BMP_pressure;BME280_temperature;BME280_humidity;BME280_pressure;Samples;Min_cycle;Max_cycle;Signal;HPM_P1;HPM_P2
2022/03/05 00:00:55;;;;;;;6.63;3.38;;;;;;;-145.06;0.00;60892.56;4800209;28;20456;-90
2022/03/05 00:03:34;;;;;;;8.48;4.32;;;;;;;-145.06;0.00;60892.56;4815941;28;21624;-91
2022/03/05 00:06:13;;;;;;;7.95;3.72;;;;;;;-145.06;0.00;60892.56;4801138;28;20066;-90
2022/03/05 00:08:52;;;;;;;6.27;3.73;;;;;;;-145.06;0.00;60892.56;4801273;28;20038;-91
2022/03/05 00:11:31;;;;;;;7.03;4.10;;;;;;;-145.06;0.00;60892.56;4801930;28;20304;-91
2022/03/05 00:14:10;;;;;;;7.90;4.45;;;;;;;-145.06;0.00;60892.56;4800867;28;20125;-91
2022/03/05 00:16:49;;;;;;;8.30;4.33;;;;;;;-145.06;0.00;60892.56;4803397;28;20034;-93
2022/03/05 00:19:28;;;;;;;9.52;5.20;;;;;;;-145.06;0.00;60892.56;4802173;28;20635;-91
2022/03/05 00:22:07;;;;;;;9.48;5.25;;;;;;;-145.06;0.00;60892.56;4815386;28;20034;-90
2022/03/05 00:24:46;;;;;;;7.78;4.80;;;;;;;-145.06;0.00;60892.56;4801275;28;20029;-90
2022/03/05 00:27:25;;;;;;;12.38;5.72;;;;;;;-145.06;0.00;60892.56;4810722;28;20101;-91
2022/03/05 00:30:05;;;;;;;10.88;6.00;;;;;;;-145.06;0.00;60892.56;4804397;28;20038;-91
2022/03/05 00:32:45;;;;;;;10.65;5.38;;;;;;;-145.06;0.00;60892.56;4803694;28;20046;-90
2022/03/05 00:35:25;;;;;;;8.00;4.30;;;;;;;-145.06;0.00;60892.56;4821771;28;20054;-91
2022/03/05 00:38:04;;;;;;;8.55;4.82;;;;;;;-145.06;0.00;60892.56;4826799;28;20038;-90
2022/03/05 00:40:44;;;;;;;8.20;4.20;;;;;;;-145.06;0.00;60892.56;4804107;28;20042;-92
2022/03/05 00:43:22;;;;;;;8.48;4.80;;;;;;;-145.06;0.00;60892.56;4804118;28;20433;-91
2022/03/05 00:46:01;;;;;;;8.40;4.72;;;;;;;-145.06;0.00;60892.56;4804097;28;20026;-89
2022/03/05 00:48:40;;;;;;;10.00;5.10;;;;;;;-145.06;0.00;60892.56;4800402;28;20030;-91
2022/03/05 00:51:19;;;;;;;11.03;5.60;;;;;;;-145.06;0.00;60892.56;4802964;28;20113;-91
2022/03/05 00:53:58;;;;;;;12.63;6.30;;;;;;;-145.06;0.00;60892.56;4803329;28;20120;-91
2022/03/05 00:56:37;;;;;;;14.32;6.80;;;;;;;-145.06;0.00;60892.56;4804010;28;20026;-91
2022/03/05 00:59:16;;;;;;;10.82;5.70;;;;;;;-145.06;0.00;60892.56;4802750;28;20400;-91
2022/03/05 01:01:56;;;;;;;11.82;5.85;;;;;;;-145.06;0.00;60892.56;4802450;28;20030;-91
2022/03/05 01:04:35;;;;;;;;;;;;;;;-145.06;0.00;60892.56;4804139;28;20117;-92
2022/03/05 01:07:14;;;;;;;12.07;5.95;;;;;;;-145.06;0.00;60892.56;4801969;28;20476;-90
2022/03/05 01:09:53;;;;;;;8.47;4.77;;;;;;;-145.06;0.00;60892.56;4801829;28;20117;-90
2022/03/05 01:12:32;;;;;;;10.35;5.30;;;;;;;-145.06;0.00;60892.56;4800373;28;20771;-91
2022/03/05 01:15:11;;;;;;;13.00;6.40;;;;;;;-145.06;0.00;60892.56;4802357;28;20027;-90
2022/03/05 01:17:50;;;;;;;10.03;5.60;;;;;;;-145.06;0.00;60892.56;4805212;28;20030;-90
2022/03/05 01:20:30;;;;;;;10.83;5.40;;;;;;;-145.06;0.00;60892.56;4802478;28;20273;-90
2022/03/05 01:23:09;;;;;;;11.07;5.68;;;;;;;-145.06;0.00;60892.56;4802501;28;20472;-92
2022/03/05 01:25:48;;;;;;;9.10;4.97;;;;;;;-145.06;0.00;60892.56;4802211;28;20384;-91
2022/03/05 01:28:27;;;;;;;8.00;4.13;;;;;;;-145.06;0.00;60892.56;4803893;28;20038;-91
2022/03/05 01:31:06;;;;;;;8.48;4.47;;;;;;;-145.06;0.00;60892.56;4800575;28;20105;-91
2022/03/05 01:33:45;;;;;;;9.68;5.20;;;;;;;-145.06;0.00;60892.56;4802781;28;20069;-90
2022/03/05 01:36:24;;;;;;;8.57;4.37;;;;;;;-145.06;0.00;60892.56;4830988;28;20038;-92
2022/03/05 01:39:03;;;;;;;7.87;4.23;;;;;;;-145.06;0.00;60892.56;4818583;28;20030;-92
2022/03/05 01:41:44;;;;;;;9.55;4.57;;;;;;;-145.06;0.00;60892.56;4803216;28;20273;-91
2022/03/05 01:44:24;;;;;;;8.30;4.18;;;;;;;-145.06;0.00;60892.56;4831265;28;20030;-91
2022/03/05 01:47:04;;;;;;;10.05;4.97;;;;;;;-145.06;0.00;60892.56;4803033;28;20022;-92
2022/03/05 01:49:44;;;;;;;7.97;4.10;;;;;;;-145.06;0.00;60892.56;4802759;28;20495;-89
2022/03/05 01:52:23;;;;;;;8.70;4.95;;;;;;;-145.06;0.00;60892.56;4802266;28;20033;-90
2022/03/05 01:55:03;;;;;;;10.03;5.30;;;;;;;-145.06;0.00;60892.56;4804369;28;20038;-91
2022/03/05 01:57:42;;;;;;;14.43;6.05;;;;;;;-145.06;0.00;60892.56;4802393;28;20066;-91
2022/03/05 02:00:21;;;;;;;10.63;5.80;;;;;;;-145.06;0.00;60892.56;4804536;28;20034;-92
2022/03/05 02:03:00;;;;;;;8.80;4.75;;;;;;;-145.06;0.00;60892.56;4799929;28;20034;-90
2022/03/05 02:05:39;;;;;;;9.40;5.07;;;;;;;-145.06;0.00;60892.56;4817418;28;20035;-92
2022/03/05 02:08:19;;;;;;;11.73;5.70;;;;;;;-145.06;0.00;60892.56;4803858;28;20137;-91
2022/03/05 02:10:58;;;;;;;10.65;5.40;;;;;;;-145.06;0.00;60892.56;4802056;28;20042;-89
2022/03/05 02:13:37;;;;;;;11.05;5.30;;;;;;;-145.06;0.00;60892.56;4835624;28;20097;-92
2022/03/05 02:16:18;;;;;;;9.95;5.20;;;;;;;-145.06;0.00;60892.56;4805457;28;20034;-90
2022/03/05 02:18:57;;;;;;;9.75;4.93;;;;;;;-145.06;0.00;60892.56;4804660;28;20114;-90
2022/03/05 02:21:36;;;;;;;9.70;4.90;;;;;;;-145.06;0.00;60892.56;4805625;28;20117;-91
2022/03/05 02:24:31;;;;;;;9.00;4.55;;;;;;;-145.06;0.00;60892.56;4805492;28;20034;-90
2022/03/05 02:27:10;;;;;;;9.25;4.13;;;;;;;-145.06;0.00;60892.56;4808049;28;20042;-90
2022/03/05 02:29:49;;;;;;;9.38;4.93;;;;;;;-145.06;0.00;60892.56;4820454;28;20029;-92
2022/03/05 02:32:28;;;;;;;7.23;4.10;;;;;;;-145.06;0.00;60892.56;4805960;28;20038;-91
2022/03/05 02:35:07;;;;;;;10.87;5.03;;;;;;;-145.06;0.00;60892.56;4806798;28;20266;-90
2022/03/05 02:37:46;;;;;;;8.23;4.78;;;;;;;-145.06;0.00;60892.56;4804270;28;20759;-91
2022/03/05 02:40:26;;;;;;;9.07;4.50;;;;;;;-145.06;0.00;60892.56;4805254;28;20369;-91
2022/03/05 02:43:06;;;;;;;7.05;3.97;;;;;;;-145.06;0.00;60892.56;4830750;28;20034;-91
2022/03/05 02:45:45;;;;;;;7.75;3.75;;;;;;;-145.06;0.00;60892.56;4800943;28;20491;-90
2022/03/05 02:48:25;;;;;;;8.13;4.00;;;;;;;-145.06;0.00;60892.56;4804052;28;20068;-91
2022/03/05 02:51:04;;;;;;;;;;;;;;;-145.06;0.00;60892.56;4805469;28;20491;-92
2022/03/05 02:53:43;;;;;;;7.07;3.90;;;;;;;-145.06;0.00;60892.56;4806268;28;19997;-91
2022/03/05 02:56:22;;;;;;;7.40;3.50;;;;;;;-145.06;0.00;60892.56;4807423;28;20034;-89
2022/03/05 02:59:01;;;;;;;7.28;3.85;;;;;;;-145.06;0.00;60892.56;4805182;28;20038;-90
2022/03/05 03:01:40;;;;;;;7.40;3.90;;;;;;;-145.06;0.00;60892.56;4804693;28;20038;-89
2022/03/05 03:04:19;;;;;;;6.55;3.67;;;;;;;-145.06;0.00;60892.56;4805413;28;20069;-91
2022/03/05 03:06:58;;;;;;;8.90;4.53;;;;;;;-145.06;0.00;60892.56;4803045;28;20027;-90
2022/03/05 03:09:37;;;;;;;7.90;4.22;;;;;;;-145.06;0.00;60892.56;4807407;28;20026;-90
2022/03/05 03:12:16;;;;;;;8.43;4.30;;;;;;;-145.06;0.00;60892.56;4803599;28;20045;-90
2022/03/05 03:14:55;;;;;;;7.60;3.73;;;;;;;-145.06;0.00;60892.56;4807006;28;20794;-90
2022/03/05 03:17:48;;;;;;;8.50;4.10;;;;;;;-145.06;0.00;60892.56;4805065;28;20031;-92
2022/03/05 03:20:27;;;;;;;9.68;4.45;;;;;;;-145.06;0.00;60892.56;4831613;28;20468;-90
2022/03/05 03:23:06;;;;;;;6.63;3.83;;;;;;;-145.06;0.00;60892.56;4802911;28;20030;-90
2022/03/05 03:25:45;;;;;;;7.87;4.00;;;;;;;-145.06;0.00;60892.56;4803811;28;20758;-91
2022/03/05 03:28:24;;;;;;;8.23;4.22;;;;;;;-145.06;0.00;60892.56;4803533;28;20038;-90
2022/03/05 03:31:03;;;;;;;8.52;4.00;;;;;;;-145.06;0.00;60892.56;4814647;28;20073;-90
2022/03/05 03:33:42;;;;;;;9.25;4.40;;;;;;;-145.06;0.00;60892.56;4805558;28;20030;-90
2022/03/05 03:36:20;;;;;;;7.35;3.55;;;;;;;-145.06;0.00;60892.56;4803754;28;20031;-91
2022/03/05 03:38:59;;;;;;;6.53;3.47;;;;;;;-145.06;0.00;60892.56;4805093;28;20030;-90
2022/03/05 03:41:38;;;;;;;9.27;4.65;;;;;;;-145.06;0.00;60892.56;4812597;28;20030;-90
2022/03/05 03:44:17;;;;;;;9.00;4.22;;;;;;;-145.06;0.00;60892.56;4804086;28;20034;-90
2022/03/05 03:46:57;;;;;;;7.87;3.80;;;;;;;-145.06;0.00;60892.56;4804660;28;20034;-90
2022/03/05 03:49:36;;;;;;;8.18;3.78;;;;;;;-145.06;0.00;60892.56;4805356;28;20038;-89
2022/03/05 03:52:15;;;;;;;7.35;3.78;;;;;;;-145.06;0.00;60892.56;4804824;28;20046;-90
2022/03/05 03:54:54;;;;;;;9.00;4.18;;;;;;;-145.06;0.00;60892.56;4812890;28;20030;-90
2022/03/05 03:57:33;;;;;;;10.07;3.88;;;;;;;-145.06;0.00;60892.56;4831333;28;20037;-90
2022/03/05 04:00:15;;;;;;;8.20;3.73;;;;;;;1.53;0.00;60892.56;4812587;28;20372;-89
2022/03/05 04:02:54;;;;;;;8.60;3.65;;;;;;;-145.06;0.00;60892.56;4807981;28;20297;-89
2022/03/05 04:05:33;;;;;;;6.33;3.27;;;;;;;-145.06;0.00;60892.56;4801637;28;20077;-89
2022/03/05 04:11:29;;;;;;;6.68;3.33;;;;;;;-145.06;0.00;60892.56;4759503;29;20032;-90
2022/03/05 04:14:08;;;;;;;7.03;3.60;;;;;;;-145.06;0.00;60892.56;4745694;29;20032;-90
2022/03/05 04:16:47;;;;;;;6.63;3.38;;;;;;;-145.06;0.00;60892.56;4788506;28;20062;-90
2022/03/05 04:19:26;;;;;;;10.82;4.35;;;;;;;-145.06;0.00;60892.56;4813224;28;20034;-89
2022/03/05 04:22:05;;;;;;;7.93;3.67;;;;;;;-145.06;0.00;60892.56;4828181;28;20539;-89
2022/03/05 04:24:44;;;;;;;7.17;3.30;;;;;;;-145.06;0.00;60892.56;4799936;28;20038;-91
2022/03/05 04:27:23;;;;;;;9.93;4.20;;;;;;;-145.06;0.00;60892.56;4803469;28;20269;-91
2022/03/05 04:30:06;;;;;;;7.83;3.97;;;;;;;-145.06;0.00;60892.56;4802714;28;20030;-89
2022/03/05 04:32:45;;;;;;;8.05;3.90;;;;;;;-145.06;0.00;60892.56;4804069;28;20081;-89
2022/03/05 04:35:24;;;;;;;8.60;4.03;;;;;;;-145.06;0.00;60892.56;4816721;28;20034;-90
2022/03/05 04:38:04;;;;;;;9.63;4.30;;;;;;;-145.06;0.00;60892.56;4803377;28;20042;-89
2022/03/05 04:40:43;;;;;;;8.18;3.97;;;;;;;-145.06;0.00;60892.56;4801010;28;20038;-90
2022/03/05 04:43:25;;;;;;;8.67;3.47;;;;;;;-145.06;0.00;60892.56;4799555;28;20042;-89
2022/03/05 04:46:04;;;;;;;6.78;3.20;;;;;;;-145.06;0.00;60892.56;4829992;28;20274;-89
2022/03/05 04:48:43;;;;;;;7.50;3.55;;;;;;;-145.06;0.00;60892.56;4801678;28;20030;-89
2022/03/05 04:51:22;;;;;;;8.07;4.32;;;;;;;-145.06;0.00;60892.56;4816454;28;20381;-89
2022/03/05 04:54:01;;;;;;;7.97;3.70;;;;;;;-145.06;0.00;60892.56;4801648;28;20050;-90
2022/03/05 04:56:41;;;;;;;10.23;4.35;;;;;;;-145.06;0.00;60892.56;4807277;28;20109;-89
2022/03/05 04:59:23;;;;;;;8.27;3.78;;;;;;;1.19;0.00;60892.56;4802373;28;20550;-90
2022/03/05 05:02:02;;;;;;;8.90;4.03;;;;;;;-145.06;0.00;60892.56;4800415;28;20026;-90
2022/03/05 05:04:41;;;;;;;9.32;4.45;;;;;;;-145.06;0.00;60892.56;4802225;28;20117;-90
2022/03/05 05:07:20;;;;;;;6.83;3.90;;;;;;;-145.06;0.00;60892.56;4816357;28;20041;-89
2022/03/05 05:09:59;;;;;;;10.85;4.45;;;;;;;-145.06;0.00;60892.56;4800285;28;20368;-90
2022/03/05 05:12:38;;;;;;;7.67;3.90;;;;;;;-145.06;0.00;60892.56;4799751;28;20042;-89
2022/03/05 05:15:17;;;;;;;9.02;4.07;;;;;;;-145.06;0.00;60892.56;4803026;28;20273;-88
2022/03/05 05:17:59;;;;;;;9.63;4.60;;;;;;;-145.06;0.00;60892.56;4802333;28;20039;-89
2022/03/05 05:20:38;;;;;;;8.02;4.13;;;;;;;-145.06;0.00;60892.56;4802611;28;20038;-89
2022/03/05 05:23:17;;;;;;;7.70;3.90;;;;;;;-145.06;0.00;60892.56;4803103;28;20062;-90
2022/03/05 05:25:56;;;;;;;7.97;3.78;;;;;;;-145.06;0.00;60892.56;4806372;28;20404;-89
2022/03/05 05:28:35;;;;;;;8.57;3.85;;;;;;;-145.06;0.00;60892.56;4801610;28;20042;-88
2022/03/05 05:31:14;;;;;;;9.27;4.35;;;;;;;-145.06;0.00;60892.56;4802526;28;21579;-89
2022/03/05 05:33:53;;;;;;;9.97;4.70;;;;;;;-145.06;0.00;60892.56;4801981;28;20062;-89
2022/03/05 05:36:32;;;;;;;7.82;3.92;;;;;;;-145.06;0.00;60892.56;4801979;28;20030;-88
2022/03/05 05:39:12;;;;;;;8.17;4.13;;;;;;;1.01;0.00;60892.56;4801983;28;20668;-90
2022/03/05 05:41:50;;;;;;;8.55;3.97;;;;;;;-145.06;0.00;60892.56;4804622;28;20034;-91
2022/03/05 05:44:30;;;;;;;9.60;4.63;;;;;;;-145.06;0.00;60892.56;4798822;28;20038;-88
2022/03/05 05:47:09;;;;;;;9.98;4.65;;;;;;;-145.06;0.00;60892.56;4810663;28;20030;-89
2022/03/05 05:49:49;;;;;;;11.60;5.43;;;;;;;-145.06;0.00;60892.56;4800275;28;20030;-88
2022/03/05 05:52:27;;;;;;;16.40;7.15;;;;;;;-145.06;0.00;60892.56;4804504;28;20026;-88
2022/03/05 05:55:07;;;;;;;14.73;6.90;;;;;;;-145.06;0.00;60892.56;4809917;28;20034;-89
2022/03/05 05:57:46;;;;;;;11.93;5.75;;;;;;;-145.06;0.00;60892.56;4808249;28;20030;-88
2022/03/05 06:00:25;;;;;;;11.07;5.23;;;;;;;-145.06;0.00;60892.56;4808418;28;20555;-89
2022/03/05 06:03:04;;;;;;;13.10;5.72;;;;;;;-145.06;0.00;60892.56;4805840;28;20269;-88
2022/03/05 06:05:43;;;;;;;12.60;5.47;;;;;;;-145.06;0.00;60892.56;4816016;28;20133;-89
2022/03/05 06:08:22;;;;;;;12.20;6.10;;;;;;;-145.06;0.00;60892.56;4804083;28;20065;-87
2022/03/05 06:11:01;;;;;;;11.60;5.70;;;;;;;-145.06;0.00;60892.56;4799710;28;20038;-89
2022/03/05 06:13:40;;;;;;;12.18;5.78;;;;;;;-145.06;0.00;60892.56;4807700;28;20037;-90
2022/03/05 06:16:19;;;;;;;10.27;5.07;;;;;;;-145.06;0.00;60892.56;4807553;28;20034;-89
2022/03/05 06:18:58;;;;;;;10.37;5.57;;;;;;;-145.06;0.00;60892.56;4821646;28;20046;-88
2022/03/05 06:21:37;;;;;;;12.05;5.47;;;;;;;0.78;0.00;60892.56;4799576;28;20762;-88
2022/03/05 06:24:16;;;;;;;11.63;5.30;;;;;;;-145.06;0.00;60892.56;4807055;28;20077;-90
2022/03/05 06:26:55;;;;;;;10.40;5.20;;;;;;;-145.06;0.00;60892.56;4801829;28;20062;-89
2022/03/05 06:29:34;;;;;;;10.35;4.90;;;;;;;-145.06;0.00;60892.56;4822930;28;20077;-90
2022/03/05 06:32:13;;;;;;;10.00;5.32;;;;;;;-145.06;0.00;60892.56;4809029;28;20437;-88
2022/03/05 06:34:54;;;;;;;12.15;5.03;;;;;;;-145.06;0.00;60892.56;4820956;28;20030;-89
2022/03/05 06:37:33;;;;;;;10.70;5.00;;;;;;;-145.06;0.00;60892.56;4806439;28;20034;-89
2022/03/05 06:40:12;;;;;;;10.53;5.07;;;;;;;-145.06;0.00;60892.56;4822300;28;20046;-89
2022/03/05 06:42:51;;;;;;;13.38;5.85;;;;;;;-145.06;0.00;60892.56;4817168;28;20038;-89
2022/03/05 06:45:30;;;;;;;11.47;5.30;;;;;;;-145.06;0.00;60892.56;4807237;28;20030;-89
2022/03/05 06:48:09;;;;;;;9.97;4.83;;;;;;;-145.06;0.00;60892.56;4821854;28;20605;-88
2022/03/05 06:50:49;;;;;;;10.13;4.60;;;;;;;-145.06;0.00;60892.56;4806476;28;20389;-90
2022/03/05 06:53:27;;;;;;;12.63;5.28;;;;;;;-145.06;0.00;60892.56;4803714;28;20039;-89
2022/03/05 06:56:06;;;;;;;10.60;4.80;;;;;;;-145.06;0.00;60892.56;4806417;28;20030;-89
2022/03/05 06:58:45;;;;;;;11.47;4.97;;;;;;;-145.06;0.00;60892.56;4806919;28;20269;-89
2022/03/05 07:01:24;;;;;;;12.63;5.67;;;;;;;-145.06;0.00;60892.56;4806846;28;20289;-89
2022/03/05 07:04:04;;;;;;;10.23;4.88;;;;;;;-145.06;0.00;60892.56;4805764;28;20042;-89
2022/03/05 07:06:43;;;;;;;9.77;4.32;;;;;;;-145.06;0.00;60892.56;4806880;28;20484;-87
2022/03/05 07:09:22;;;;;;;8.43;4.35;;;;;;;-145.06;0.00;60892.56;4821340;28;20038;-87
2022/03/05 07:12:00;;;;;;;9.57;4.57;;;;;;;-145.06;0.00;60892.56;4807885;28;20026;-90
2022/03/05 07:14:39;;;;;;;8.50;3.97;;;;;;;0.79;0.00;60892.56;4825800;28;20026;-90
2022/03/05 07:17:19;;;;;;;9.93;4.10;;;;;;;-145.06;0.00;60892.56;4812258;28;20046;-87
2022/03/05 07:19:58;;;;;;;9.18;3.95;;;;;;;-145.06;0.00;60892.56;4819474;28;20031;-91
2022/03/05 07:22:37;;;;;;;7.90;3.83;;;;;;;-145.06;0.00;60892.56;4808347;28;20557;-89
2022/03/05 07:25:16;;;;;;;7.93;4.07;;;;;;;-145.06;0.00;60892.56;4807524;28;20624;-90
2022/03/05 07:27:55;;;;;;;8.52;4.35;;;;;;;-145.06;0.00;60892.56;4809571;28;20026;-90
2022/03/05 07:30:35;;;;;;;8.77;4.20;;;;;;;-145.06;0.00;60892.56;4800864;28;20484;-89
2022/03/05 07:33:14;;;;;;;9.77;4.18;;;;;;;-145.06;0.00;60892.56;4810480;28;20046;-90
2022/03/05 07:35:54;;;;;;;10.20;4.25;;;;;;;-145.06;0.00;60892.56;4805079;28;20061;-89
2022/03/05 07:38:34;;;;;;;10.32;4.18;;;;;;;-145.06;0.00;60892.56;4806020;28;20046;-90
2022/03/05 07:41:13;;;;;;;10.90;4.63;;;;;;;-145.06;0.00;60892.56;4813663;28;20060;-90
2022/03/05 07:43:52;;;;;;;9.53;4.20;;;;;;;-145.06;0.00;60892.56;4806388;28;20038;-88
2022/03/05 07:46:32;;;;;;;9.70;4.13;;;;;;;-145.06;0.00;60892.56;4805553;28;20281;-90
2022/03/05 07:49:11;;;;;;;;;;;;;;;-145.06;0.00;60892.56;4820914;28;20109;-91
2022/03/05 07:51:52;;;;;;;9.10;4.05;;;;;;;-145.06;0.00;60892.56;4810351;28;19914;-90
2022/03/05 07:54:31;;;;;;;8.55;3.83;;;;;;;-145.06;0.00;60892.56;4809157;28;20042;-89
2022/03/05 07:57:10;;;;;;;9.80;4.67;;;;;;;-145.06;0.00;60892.56;4813672;28;20062;-89
2022/03/05 07:59:49;;;;;;;7.43;3.77;;;;;;;-145.06;0.00;60892.56;4820769;28;20042;-89
2022/03/05 08:02:28;;;;;;;9.17;4.70;;;;;;;-145.06;0.00;60892.56;4806710;28;20767;-90
2022/03/05 08:05:11;;;;;;;8.65;4.20;;;;;;;-145.06;0.00;60892.56;4806100;28;20038;-90
2022/03/05 08:07:50;;;;;;;7.22;3.90;;;;;;;-145.06;0.00;60892.56;4805856;28;20423;-90
2022/03/05 08:10:29;;;;;;;8.68;4.22;;;;;;;-145.06;0.00;60892.56;4803029;28;20069;-92
2022/03/05 08:13:08;;;;;;;6.60;3.55;;;;;;;-145.06;0.00;60892.56;4805603;28;20042;-90
2022/03/05 08:15:48;;;;;;;8.77;3.95;;;;;;;1.55;0.00;60892.56;4806206;28;20026;-91
2022/03/05 08:18:27;;;;;;;7.70;3.90;;;;;;;1.61;0.00;60892.56;4803651;28;20058;-90
2022/03/05 08:21:07;;;;;;;8.05;3.75;;;;;;;-145.06;0.00;60892.56;4805686;28;20500;-91
2022/03/05 08:23:46;;;;;;;;;;;;;;;-145.06;0.00;60892.56;4821252;28;20381;-91
2022/03/05 08:26:25;;;;;;;7.47;3.20;;;;;;;-145.06;0.00;60892.56;4805192;28;20355;-91
2022/03/05 08:29:04;;;;;;;6.55;3.65;;;;;;;-145.06;0.00;60892.56;4805457;28;20030;-90
2022/03/05 08:31:58;;;;;;;7.15;3.45;;;;;;;-145.06;0.00;60892.56;4774530;27;4912830;-91
2022/03/05 08:34:38;;;;;;;8.05;4.28;;;;;;;-145.06;0.00;60892.56;4911966;28;20040;-90
2022/03/05 08:37:23;;;;;;;8.63;4.57;;;;;;;-145.06;0.00;60892.56;4913788;28;20043;-91
2022/03/05 08:40:09;;;;;;;8.73;4.82;;;;;;;-145.06;0.00;60892.56;4918268;28;20028;-90
2022/03/05 08:42:50;;;;;;;8.35;4.68;;;;;;;-145.06;0.00;60892.56;4915816;28;20107;-91
2022/03/05 08:45:29;;;;;;;11.07;5.70;;;;;;;-145.06;0.00;60892.56;4903304;28;20040;-92
2022/03/05 08:48:08;;;;;;;9.32;5.47;;;;;;;-145.06;0.00;60892.56;4913233;28;20027;-91
2022/03/05 08:50:47;;;;;;;8.23;4.65;;;;;;;-145.06;0.00;60892.56;4907575;28;20032;-91
2022/03/05 08:53:26;;;;;;;9.30;4.77;;;;;;;-145.06;0.00;60892.56;4911240;28;20474;-91
2022/03/05 08:56:05;;;;;;;8.53;4.53;;;;;;;-145.06;0.00;60892.56;4913276;28;20028;-91
2022/03/05 08:58:44;;;;;;;7.85;4.03;;;;;;;-145.06;0.00;60892.56;4916763;28;20743;-90
2022/03/05 09:01:23;;;;;;;7.90;4.33;;;;;;;-145.06;0.00;60892.56;4914551;28;20032;-91
2022/03/05 09:04:02;;;;;;;7.80;4.10;;;;;;;-145.06;0.00;60892.56;4917134;28;20775;-90
2022/03/05 09:06:42;;;;;;;9.23;4.40;;;;;;;-145.06;0.00;60892.56;4915709;28;20035;-91
2022/03/05 09:09:21;;;;;;;7.23;4.17;;;;;;;-145.06;0.00;60892.56;4915076;28;20442;-90
2022/03/05 09:12:00;;;;;;;8.38;4.30;;;;;;;-145.06;0.00;60892.56;4910969;28;20028;-91
2022/03/05 09:14:39;;;;;;;7.38;3.72;;;;;;;-145.06;0.00;60892.56;4914337;28;20035;-91
2022/03/05 09:17:17;;;;;;;6.78;3.58;;;;;;;-145.06;0.00;60892.56;4910178;28;20482;-91
2022/03/05 09:19:57;;;;;;;8.37;4.27;;;;;;;-145.06;0.00;60892.56;4924253;28;20028;-89
2022/03/05 09:22:37;;;;;;;9.48;4.97;;;;;;;-145.06;0.00;60892.56;4911615;28;20529;-90
2022/03/05 09:25:16;;;;;;;8.45;4.30;;;;;;;-145.06;0.00;60892.56;4908924;28;20044;-89
2022/03/05 09:27:55;;;;;;;7.45;3.78;;;;;;;-145.06;0.00;60892.56;4916197;28;20032;-90
2022/03/05 09:30:34;;;;;;;8.25;4.60;;;;;;;-145.06;0.00;60892.56;4911355;28;20612;-90
2022/03/05 09:33:13;;;;;;;7.68;4.15;;;;;;;-145.06;0.00;60892.56;4917246;28;20024;-90
2022/03/05 09:35:52;;;;;;;7.37;4.03;;;;;;;-145.06;0.00;60892.56;4917603;28;20036;-91
2022/03/05 09:38:31;;;;;;;6.65;3.63;;;;;;;-145.06;0.00;60892.56;4921046;28;20028;-90
2022/03/05 09:41:10;;;;;;;7.45;4.20;;;;;;;-145.06;0.00;60892.56;4913583;28;20036;-90
2022/03/05 09:43:49;;;;;;;8.17;3.93;;;;;;;-145.06;0.00;60892.56;4900661;28;20375;-90
2022/03/05 09:46:28;;;;;;;7.65;4.50;;;;;;;-145.06;0.00;60892.56;4904863;28;20635;-91
2022/03/05 09:49:10;;;;;;;9.20;4.50;;;;;;;-145.06;0.00;60892.56;4903498;28;20036;-89
2022/03/05 09:51:48;;;;;;;7.38;3.70;;;;;;;5.15;0.00;60892.56;4902251;28;20032;-89
2022/03/05 09:54:28;;;;;;;7.72;4.15;;;;;;;-145.06;0.00;60892.56;4919586;28;20031;-90
2022/03/05 09:57:11;;;;;;;7.28;4.25;;;;;;;-145.06;0.00;60892.56;4917208;28;20032;-92
2022/03/05 09:59:50;;;;;;;8.32;4.20;;;;;;;-145.06;0.00;60892.56;4908573;28;20433;-91
2022/03/05 10:02:29;;;;;;;6.77;3.97;;;;;;;-145.06;0.00;60892.56;4901104;28;20024;-90
2022/03/05 10:05:20;;;;;;;8.97;4.40;;;;;;;-145.06;0.00;60892.56;4903872;28;20298;-90
2022/03/05 10:08:07;;;;;;;8.63;4.40;;;;;;;-145.06;0.00;60892.56;4909436;28;20028;-90
2022/03/05 10:11:01;;;;;;;8.18;4.43;;;;;;;-145.06;0.00;60892.56;4903302;28;20052;-91
2022/03/05 10:13:42;;;;;;;6.95;3.83;;;;;;;-145.06;0.00;60892.56;4900122;28;20028;-91
2022/03/05 10:16:29;;;;;;;7.10;3.75;;;;;;;-145.06;0.00;60892.56;4902811;28;20470;-92
2022/03/05 10:19:24;;;;;;;7.53;4.07;;;;;;;6.61;0.00;60892.56;4910633;28;20067;-90
2022/03/05 10:22:08;;;;;;;7.13;4.28;;;;;;;-145.06;0.00;60892.56;4912729;28;20485;-90
2022/03/05 10:24:47;;;;;;;8.65;4.90;;;;;;;-145.06;0.00;60892.56;4908495;28;20031;-91
2022/03/05 10:27:30;;;;;;;7.85;3.80;;;;;;;-145.06;0.00;60892.56;4900813;28;20032;-90
2022/03/05 10:30:09;;;;;;;8.32;4.20;;;;;;;-145.06;0.00;60892.56;4899366;28;20028;-91
2022/03/05 10:32:48;;;;;;;8.32;4.30;;;;;;;-145.06;0.00;60892.56;4910014;28;20031;-92
2022/03/05 10:35:27;;;;;;;9.77;4.70;;;;;;;-145.06;0.00;60892.56;4902391;28;20170;-91
2022/03/05 10:38:09;;;;;;;6.38;3.72;;;;;;;-145.06;0.00;60892.56;4904379;28;20257;-90
2022/03/05 10:40:54;;;;;;;6.50;3.70;;;;;;;-145.06;0.00;60892.56;4910306;28;20040;-91
2022/03/05 10:43:33;;;;;;;7.85;4.53;;;;;;;-145.06;0.00;60892.56;4919659;28;20040;-90
2022/03/05 10:46:13;;;;;;;8.10;4.57;;;;;;;-145.06;0.00;60892.56;4904239;28;20483;-91
2022/03/05 10:48:52;;;;;;;7.03;3.70;;;;;;;-145.06;0.00;60892.56;4897282;28;20271;-91
2022/03/05 10:51:31;;;;;;;6.95;3.83;;;;;;;-145.06;0.00;60892.56;4913488;28;20063;-91
2022/03/05 10:54:10;;;;;;;6.40;3.63;;;;;;;-145.06;0.00;60892.56;4904506;28;20027;-91
2022/03/05 10:56:49;;;;;;;6.70;3.90;;;;;;;-145.06;0.00;60892.56;4889673;28;20263;-91
2022/03/05 10:59:34;;;;;;;7.00;3.83;;;;;;;-145.06;0.00;60892.56;4914016;28;20110;-90
2022/03/05 11:02:16;;;;;;;6.85;3.47;;;;;;;-145.06;0.00;60892.56;4907377;28;20019;-91
2022/03/05 11:04:57;;;;;;;6.45;3.70;;;;;;;-145.06;0.00;60892.56;4900350;28;20054;-91
2022/03/05 11:07:37;;;;;;;7.10;3.92;;;;;;;-145.06;0.00;60892.56;4919346;28;20063;-92
2022/03/05 11:10:18;;;;;;;8.13;4.05;;;;;;;-145.06;0.00;60892.56;4901444;28;20059;-90
2022/03/05 11:13:00;;;;;;;7.90;4.25;;;;;;;-145.06;0.00;60892.56;4899421;28;20043;-92
2022/03/05 11:15:39;;;;;;;6.15;3.25;;;;;;;-145.06;0.00;60892.56;4904064;28;20024;-91
2022/03/05 11:18:18;;;;;;;6.93;3.78;;;;;;;-145.06;0.00;60892.56;4891147;28;20031;-91
2022/03/05 11:21:00;;;;;;;5.90;3.40;;;;;;;-145.06;0.00;60892.56;4899530;28;20039;-91
2022/03/05 11:23:41;;;;;;;5.43;3.30;;;;;;;-145.06;0.00;60892.56;4903935;28;20032;-91
2022/03/05 11:26:21;;;;;;;5.32;2.92;;;;;;;10.68;0.00;60892.56;4897009;28;20031;-91
2022/03/05 11:29:00;;;;;;;6.53;3.53;;;;;;;10.64;0.00;60892.56;4899020;28;20032;-90
2022/03/05 11:31:39;;;;;;;5.73;2.77;;;;;;;-145.06;0.00;60892.56;4898095;28;20036;-92
2022/03/05 11:34:21;;;;;;;5.65;3.25;;;;;;;-145.06;0.00;60892.56;4896721;28;20281;-92
2022/03/05 11:37:00;;;;;;;5.30;2.90;;;;;;;-145.06;0.00;60892.56;4912872;28;20063;-92
2022/03/05 11:39:39;;;;;;;5.00;2.87;;;;;;;-145.06;0.00;60892.56;4899440;28;20028;-90
2022/03/05 11:42:30;;;;;;;4.57;3.03;;;;;;;-145.06;0.00;60892.56;4899182;28;20028;-90
2022/03/05 11:45:27;;;;;;;4.43;2.47;;;;;;;-145.06;0.00;60892.56;4897890;28;20036;-91
2022/03/05 11:48:24;;;;;;;4.43;2.90;;;;;;;-145.06;0.00;60892.56;4915538;28;20044;-92
2022/03/05 11:51:16;;;;;;;6.20;3.50;;;;;;;11.67;0.00;60892.56;4904247;28;20032;-92
2022/03/05 11:54:25;;;;;;;6.22;3.20;;;;;;;15.88;0.00;60892.56;4896272;28;20028;-91
2022/03/05 11:57:11;;;;;;;5.20;2.50;;;;;;;-145.06;0.00;60892.56;4896655;28;20043;-92
2022/03/05 11:59:56;;;;;;;3.83;2.33;;;;;;;-145.06;0.00;60892.56;4900959;28;20068;-93
2022/03/05 12:02:43;;;;;;;4.28;2.40;;;;;;;-145.06;0.00;60892.56;4900957;28;20028;-92
2022/03/05 12:05:46;;;;;;;4.35;2.63;;;;;;;-145.06;0.00;60892.56;4891315;28;20036;-91
2022/03/05 12:08:25;;;;;;;3.65;2.17;;;;;;;-145.06;0.00;60892.56;4898176;28;20020;-92
2022/03/05 12:11:16;;;;;;;3.65;2.45;;;;;;;-145.06;0.00;60892.56;4898784;28;20024;-92
2022/03/05 12:13:58;;;;;;;4.05;2.47;;;;;;;-145.06;0.00;60892.56;4901056;28;20028;-92
2022/03/05 12:16:44;;;;;;;4.57;2.35;;;;;;;-145.06;0.00;60892.56;4893163;28;20032;-91
2022/03/05 12:19:23;;;;;;;3.03;2.03;;;;;;;-145.06;0.00;60892.56;4900279;28;20470;-92
2022/03/05 12:22:03;;;;;;;4.70;2.53;;;;;;;-145.06;0.00;60892.56;4897779;28;20032;-92
2022/03/05 12:24:42;;;;;;;3.78;2.35;;;;;;;-145.06;0.00;60892.56;4892195;28;20040;-92
2022/03/05 12:27:22;;;;;;;3.67;2.38;;;;;;;-145.06;0.00;60892.56;4900821;28;20059;-92